Wind Spirit — C6CY9 — position and weather

sailwx.info

Track history (hours):
 
Tides and Currents Weather Stations Pressure Air Temp Water Temp Dewpoint Dewpoint Depression Visibility Wind Speed Wind Dir Waves Ship Positions

Wind Spirit

Operator: Holland America Line

Last reported at 2013-Dec-02 01:22 UTC. Time now 2017-Mar-30 22:48 UTC.
Position N 17°52' W 063°22'.
Warning: this ship's position is years out of date!

Length 134 m; draft 4.1 m.

Type: Sailing vessel. MMSI: 309056000.

Date/timePositionNaut miles runAvg speedWind from/ knotsBaromVisibWave heightAir tempDewpointWater temp
2013-Dec-02 01:22N 17°52' W 063°22'7 9.1
2013-Dec-02 00:33N 17°55' W 063°16'9 9.3
2013-Dec-01 23:33N 17°59' W 063°07'4 3.8
2013-Dec-01 22:28N 18°01' W 063°03'0 0.0
2013-Dec-01 21:28N 18°01' W 063°03'0 0.0
2013-Dec-01 20:28N 18°01' W 063°03'0 0.0
2013-Dec-01 19:28N 18°01' W 063°03'0 0.0
2013-Dec-01 18:28N 18°01' W 063°03'0 0.0
2013-Dec-01 17:28N 18°01' W 063°03'0 0.0
2013-Dec-01 16:28N 18°01' W 063°03'0 0.0
2013-Dec-01 15:28N 18°01' W 063°03'0 0.0
2013-Dec-01 14:28N 18°01' W 063°03'0 0.0
2013-Dec-01 13:28N 18°01' W 063°03'0 0.0
2013-Dec-01 12:28N 18°01' W 063°03'0 0.0
2013-Dec-01 11:28N 18°01' W 063°03'1 0.5
2013-Dec-01 10:33N 18°00' W 063°03'6 6.0
2013-Dec-01 09:33N 17°56' W 062°59'7 6.7
2013-Dec-01 08:29N 17°54' W 062°52'0 0.0
2013-Dec-01 07:29N 17°54' W 062°52'0 0.0
2013-Dec-01 06:29N 17°54' W 062°52'0 0.0
2013-Dec-01 05:29N 17°54' W 062°52'0 0.0
2013-Dec-01 04:29N 17°54' W 062°52'0 0.0
2013-Dec-01 03:29N 17°54' W 062°52'0 0.0
2013-Dec-01 02:29N 17°54' W 062°52'0 0.0
2013-Dec-01 01:29N 17°54' W 062°52'0 0.0
2013-Dec-01 00:29N 17°54' W 062°52'0 0.0
2013-Nov-30 23:29N 17°54' W 062°52'0 0.0
2013-Nov-30 22:29N 17°54' W 062°52'0 0.0
2013-Nov-30 21:23N 17°54' W 062°52'0 0.0
2013-Nov-30 20:29N 17°54' W 062°52'0 0.0
2013-Nov-30 19:23N 17°54' W 062°52'0 0.0
2013-Nov-30 18:29N 17°54' W 062°52'0 0.0
2013-Nov-30 17:11N 17°54' W 062°52'0 0.0
2013-Nov-30 16:29N 17°54' W 062°52'0 0.0
2013-Nov-30 15:29N 17°54' W 062°52'0 0.0
2013-Nov-30 14:29N 17°54' W 062°52'0 0.0
2013-Nov-30 13:29N 17°54' W 062°52'0 0.0
2013-Nov-30 12:29N 17°54' W 062°52'4 4.6
2013-Nov-30 11:33N 17°55' W 062°56'7 7.1
2013-Nov-30 10:33N 17°56' W 063°04'7 7.3
2013-Nov-30 09:33N 17°57' W 063°11'8 7.9
2013-Nov-30 08:33N 17°60' W 063°19'8 7.4
2013-Nov-30 07:32N 18°02' W 063°27'7 7.1
2013-Nov-30 06:33N 18°04' W 063°34'7 7.2
2013-Nov-30 05:32N 18°06' W 063°41'  
2013-Nov-27 07:14N 18°03' W 063°48'7 9.6
2013-Nov-27 06:33N 17°60' W 063°42'10 9.6
2013-Nov-27 05:33N 17°55' W 063°33'10 9.7
2013-Nov-27 04:33N 17°50' W 063°24'10 9.7
2013-Nov-27 03:33N 17°45' W 063°16'10 9.8
2013-Nov-27 02:33N 17°40' W 063°07'1010.0
2013-Nov-27 01:33N 17°36' W 062°58'10 9.8
2013-Nov-27 00:33N 17°31' W 062°49'66 4.7
2013-Nov-26 10:24N 17°01' W 061°47'0 0.0
2013-Nov-26 09:33N 17°01' W 061°47'0 0.0
2013-Nov-26 08:33N 17°01' W 061°47'0 0.0
2013-Nov-26 07:33N 17°01' W 061°47'0 0.0
2013-Nov-26 06:33N 17°01' W 061°47'0 0.0
2013-Nov-26 05:33N 17°01' W 061°47'0 0.0
2013-Nov-26 04:33N 17°01' W 061°47'0 0.0
2013-Nov-26 03:33N 17°01' W 061°47'0 0.0
2013-Nov-26 02:33N 17°01' W 061°47'0 0.0
2013-Nov-26 01:33N 17°01' W 061°47'0 0.0
2013-Nov-26 00:33N 17°01' W 061°47'0 0.0
2013-Nov-25 23:33N 17°01' W 061°47'0 0.0
2013-Nov-25 22:33N 17°01' W 061°47'0 0.0
2013-Nov-25 21:33N 17°01' W 061°47'0 0.0
2013-Nov-25 20:33N 17°01' W 061°47'0 0.0
2013-Nov-25 19:33N 17°01' W 061°47'0 0.0
2013-Nov-25 18:33N 17°01' W 061°47'0 0.0
2013-Nov-25 17:33N 17°01' W 061°47'53 3.8
2013-Nov-25 03:33N 17°31' W 062°33'9 9.5
2013-Nov-25 02:33N 17°37' W 062°40'9 9.4
2013-Nov-25 01:33N 17°44' W 062°47'10 9.6
2013-Nov-25 00:33N 17°51' W 062°54'1010.4
2013-Nov-24 23:33N 17°58' W 063°01'3 2.8
2013-Nov-24 22:32N 18°01' W 063°03'0 0.0
2013-Nov-24 21:32N 18°01' W 063°03'0 0.0
2013-Nov-24 20:26N 18°01' W 063°03'0 0.0
2013-Nov-24 19:26N 18°01' W 063°03'0 0.0
2013-Nov-24 18:32N 18°01' W 063°03'0 0.0
2013-Nov-24 17:32N 18°01' W 063°03'0 0.0
2013-Nov-24 16:32N 18°01' W 063°03'0 0.0
2013-Nov-24 15:32N 18°01' W 063°03'0 0.0
2013-Nov-24 14:26N 18°01' W 063°03'0 0.0
2013-Nov-24 13:20N 18°01' W 063°03'0 0.0
2013-Nov-24 12:32N 18°01' W 063°03'0 0.0
2013-Nov-24 11:26N 18°01' W 063°03'1 0.8
2013-Nov-24 10:33N 18°00' W 063°03'8 8.4
2013-Nov-24 09:33N 17°54' W 062°58'10 9.7
2013-Nov-24 08:33N 17°50' W 062°48'10 9.5
2013-Nov-24 07:33N 17°50' W 062°38'9 9.1
2013-Nov-24 06:33N 17°51' W 062°29'  
Track history (hours):
 
Tides and Currents Weather Stations Pressure Air Temp Water Temp Dewpoint Dewpoint Depression Visibility Wind Speed Wind Dir Waves Ship Positions

Wind Spirit

Operator: Holland America Line

Last reported at 2013-Dec-02 01:22 UTC. Time now 2017-Mar-30 22:48 UTC.
Position N 17°52' W 063°22'.
Warning: this ship's position is years out of date!

Length 134 m; draft 4.1 m.

Type: Sailing vessel. MMSI: 309056000.

Date/timePositionNaut miles runAvg speedWind from/ knotsBaromVisibWave heightAir tempDewpointWater temp
2013-Dec-02 01:22N 17°52' W 063°22'7 9.1
2013-Dec-02 00:33N 17°55' W 063°16'9 9.3
2013-Dec-01 23:33N 17°59' W 063°07'4 3.8
2013-Dec-01 22:28N 18°01' W 063°03'0 0.0
2013-Dec-01 21:28N 18°01' W 063°03'0 0.0
2013-Dec-01 20:28N 18°01' W 063°03'0 0.0
2013-Dec-01 19:28N 18°01' W 063°03'0 0.0
2013-Dec-01 18:28N 18°01' W 063°03'0 0.0
2013-Dec-01 17:28N 18°01' W 063°03'0 0.0
2013-Dec-01 16:28N 18°01' W 063°03'0 0.0
2013-Dec-01 15:28N 18°01' W 063°03'0 0.0
2013-Dec-01 14:28N 18°01' W 063°03'0 0.0
2013-Dec-01 13:28N 18°01' W 063°03'0 0.0
2013-Dec-01 12:28N 18°01' W 063°03'0 0.0
2013-Dec-01 11:28N 18°01' W 063°03'1 0.5
2013-Dec-01 10:33N 18°00' W 063°03'6 6.0
2013-Dec-01 09:33N 17°56' W 062°59'7 6.7
2013-Dec-01 08:29N 17°54' W 062°52'0 0.0
2013-Dec-01 07:29N 17°54' W 062°52'0 0.0
2013-Dec-01 06:29N 17°54' W 062°52'0 0.0
2013-Dec-01 05:29N 17°54' W 062°52'0 0.0
2013-Dec-01 04:29N 17°54' W 062°52'0 0.0
2013-Dec-01 03:29N 17°54' W 062°52'0 0.0
2013-Dec-01 02:29N 17°54' W 062°52'0 0.0
2013-Dec-01 01:29N 17°54' W 062°52'0 0.0
2013-Dec-01 00:29N 17°54' W 062°52'0 0.0
2013-Nov-30 23:29N 17°54' W 062°52'0 0.0
2013-Nov-30 22:29N 17°54' W 062°52'0 0.0
2013-Nov-30 21:23N 17°54' W 062°52'0 0.0
2013-Nov-30 20:29N 17°54' W 062°52'0 0.0
2013-Nov-30 19:23N 17°54' W 062°52'0 0.0
2013-Nov-30 18:29N 17°54' W 062°52'0 0.0
2013-Nov-30 17:11N 17°54' W 062°52'0 0.0
2013-Nov-30 16:29N 17°54' W 062°52'0 0.0
2013-Nov-30 15:29N 17°54' W 062°52'0 0.0
2013-Nov-30 14:29N 17°54' W 062°52'0 0.0
2013-Nov-30 13:29N 17°54' W 062°52'0 0.0
2013-Nov-30 12:29N 17°54' W 062°52'4 4.6
2013-Nov-30 11:33N 17°55' W 062°56'7 7.1
2013-Nov-30 10:33N 17°56' W 063°04'7 7.3
2013-Nov-30 09:33N 17°57' W 063°11'8 7.9
2013-Nov-30 08:33N 17°60' W 063°19'8 7.4
2013-Nov-30 07:32N 18°02' W 063°27'7 7.1
2013-Nov-30 06:33N 18°04' W 063°34'7 7.2
2013-Nov-30 05:32N 18°06' W 063°41'  
2013-Nov-27 07:14N 18°03' W 063°48'7 9.6
2013-Nov-27 06:33N 17°60' W 063°42'10 9.6
2013-Nov-27 05:33N 17°55' W 063°33'10 9.7
2013-Nov-27 04:33N 17°50' W 063°24'10 9.7
2013-Nov-27 03:33N 17°45' W 063°16'10 9.8
2013-Nov-27 02:33N 17°40' W 063°07'1010.0
2013-Nov-27 01:33N 17°36' W 062°58'10 9.8
2013-Nov-27 00:33N 17°31' W 062°49'66 4.7
2013-Nov-26 10:24N 17°01' W 061°47'0 0.0
2013-Nov-26 09:33N 17°01' W 061°47'0 0.0
2013-Nov-26 08:33N 17°01' W 061°47'0 0.0
2013-Nov-26 07:33N 17°01' W 061°47'0 0.0
2013-Nov-26 06:33N 17°01' W 061°47'0 0.0
2013-Nov-26 05:33N 17°01' W 061°47'0 0.0
2013-Nov-26 04:33N 17°01' W 061°47'0 0.0
2013-Nov-26 03:33N 17°01' W 061°47'0 0.0
2013-Nov-26 02:33N 17°01' W 061°47'0 0.0
2013-Nov-26 01:33N 17°01' W 061°47'0 0.0
2013-Nov-26 00:33N 17°01' W 061°47'0 0.0
2013-Nov-25 23:33N 17°01' W 061°47'0 0.0
2013-Nov-25 22:33N 17°01' W 061°47'0 0.0
2013-Nov-25 21:33N 17°01' W 061°47'0 0.0
2013-Nov-25 20:33N 17°01' W 061°47'0 0.0
2013-Nov-25 19:33N 17°01' W 061°47'0 0.0
2013-Nov-25 18:33N 17°01' W 061°47'0 0.0
2013-Nov-25 17:33N 17°01' W 061°47'53 3.8
2013-Nov-25 03:33N 17°31' W 062°33'9 9.5
2013-Nov-25 02:33N 17°37' W 062°40'9 9.4
2013-Nov-25 01:33N 17°44' W 062°47'10 9.6
2013-Nov-25 00:33N 17°51' W 062°54'1010.4
2013-Nov-24 23:33N 17°58' W 063°01'3 2.8
2013-Nov-24 22:32N 18°01' W 063°03'0 0.0
2013-Nov-24 21:32N 18°01' W 063°03'0 0.0
2013-Nov-24 20:26N 18°01' W 063°03'0 0.0
2013-Nov-24 19:26N 18°01' W 063°03'0 0.0
2013-Nov-24 18:32N 18°01' W 063°03'0 0.0
2013-Nov-24 17:32N 18°01' W 063°03'0 0.0
2013-Nov-24 16:32N 18°01' W 063°03'0 0.0
2013-Nov-24 15:32N 18°01' W 063°03'0 0.0
2013-Nov-24 14:26N 18°01' W 063°03'0 0.0
2013-Nov-24 13:20N 18°01' W 063°03'0 0.0
2013-Nov-24 12:32N 18°01' W 063°03'0 0.0
2013-Nov-24 11:26N 18°01' W 063°03'1 0.8
2013-Nov-24 10:33N 18°00' W 063°03'8 8.4
2013-Nov-24 09:33N 17°54' W 062°58'10 9.7
2013-Nov-24 08:33N 17°50' W 062°48'10 9.5
2013-Nov-24 07:33N 17°50' W 062°38'9 9.1
2013-Nov-24 06:33N 17°51' W 062°29'  

Dump ship's entire track history